Time;durP1;ratioP1;P1;durP2;ratioP2;P2;SDS_P1;SDS_P2;PMS_P1;PMS_P2;Temp;Humidity;BMP_temperature;BMP_pressure;BME280_temperature;BME280_humidity;BME280_pressure;Samples;Min_cycle;Max_cycle;Signal;HPM_P1;HPM_P2
2021/07/15 00:00:11;;;;;;;10.60;7.55;;;25.70;59.50;;;;;;5053580;28;20028;-76
2021/07/15 00:02:37;;;;;;;10.70;7.13;;;25.70;59.70;;;;;;5054382;28;20120;-73
2021/07/15 00:05:14;;;;;;;10.48;7.15;;;25.60;59.60;;;;;;5053913;28;20104;-73
2021/07/15 00:07:40;;;;;;;12.30;7.07;;;25.60;59.80;;;;;;5053296;28;20512;-73
2021/07/15 00:10:24;;;;;;;8.52;6.80;;;25.60;59.70;;;;;;5053584;28;20029;-75
2021/07/15 00:12:51;;;;;;;8.73;7.00;;;25.50;59.80;;;;;;5053561;28;20028;-73
2021/07/15 00:15:20;;;;;;;12.73;7.53;;;25.50;60.00;;;;;;5053838;28;20029;-73
2021/07/15 00:17:46;;;;;;;10.77;7.22;;;25.50;60.30;;;;;;5053712;28;20025;-73
2021/07/15 00:20:14;;;;;;;10.63;7.43;;;25.50;60.50;;;;;;5053436;28;20028;-73
2021/07/15 00:22:41;;;;;;;10.68;8.18;;;25.40;60.40;;;;;;5053498;28;20375;-73
2021/07/15 00:25:09;;;;;;;11.88;8.35;;;25.40;60.80;;;;;;5053446;28;20040;-72
2021/07/15 00:27:36;;;;;;;16.65;8.38;;;25.40;61.20;;;;;;5054105;28;20037;-72
2021/07/15 00:30:04;;;;;;;11.65;8.02;;;25.30;61.50;;;;;;5053405;28;20139;-73
2021/07/15 00:32:30;;;;;;;14.68;8.13;;;25.30;61.70;;;;;;5051946;28;20140;-72
2021/07/15 00:34:56;;;;;;;12.43;8.27;;;25.30;61.70;;;;;;5052361;28;20103;-72
2021/07/15 00:37:22;;;;;;;13.95;8.88;;;25.30;61.90;;;;;;5053846;28;20021;-73
2021/07/15 00:39:48;;;;;;;13.75;8.13;;;25.20;62.00;;;;;;5053238;28;20032;-73
2021/07/15 00:42:14;;;;;;;11.93;8.80;;;25.20;62.00;;;;;;5053890;28;20040;-73
2021/07/15 00:44:39;;;;;;;12.77;8.68;;;25.20;62.10;;;;;;5052955;28;20075;-73
2021/07/15 00:47:05;;;;;;;12.25;8.93;;;25.10;62.20;;;;;;5053874;28;20387;-72
2021/07/15 00:49:31;;;;;;;11.02;8.70;;;25.10;62.70;;;;;;5053195;28;20021;-72
2021/07/15 00:51:56;;;;;;;17.70;9.05;;;25.00;62.90;;;;;;5053078;28;20423;-72
2021/07/15 00:54:22;;;;;;;17.65;9.15;;;25.00;62.80;;;;;;5052606;28;20053;-73
2021/07/15 00:56:48;;;;;;;13.85;8.65;;;25.00;62.80;;;;;;5053148;28;20033;-72
2021/07/15 00:59:13;;;;;;;13.02;8.15;;;24.90;62.70;;;;;;5053314;28;20079;-73
2021/07/15 01:01:39;;;;;;;12.82;8.30;;;24.90;62.60;;;;;;5052994;28;20036;-73
2021/07/15 01:04:05;;;;;;;14.48;8.40;;;24.90;62.80;;;;;;5052793;28;20033;-72
2021/07/15 01:06:31;;;;;;;13.73;8.65;;;24.80;62.80;;;;;;5052966;28;20052;-73
2021/07/15 01:08:56;;;;;;;11.95;7.80;;;24.80;63.00;;;;;;5052997;28;20064;-72
2021/07/15 01:11:41;;;;;;;13.95;8.45;;;24.80;62.80;;;;;;5053129;28;20032;-72
2021/07/15 01:14:18;;;;;;;16.52;8.70;;;24.80;63.00;;;;;;5057489;28;20017;-72
2021/07/15 01:17:07;;;;;;;18.52;8.00;;;24.70;63.00;;;;;;5056586;28;20529;-73
2021/07/15 01:19:51;;;;;;;16.23;8.15;;;24.70;63.00;;;;;;5057515;28;20032;-73
2021/07/15 01:22:28;;;;;;;14.38;7.82;;;24.60;62.90;;;;;;5056458;28;20040;-73
2021/07/15 01:25:28;;;;;;;10.70;7.00;;;24.60;62.70;;;;;;5056841;28;20037;-72
2021/07/15 01:28:18;;;;;;;13.75;7.03;;;24.60;62.20;;;;;;5056639;28;20025;-72
2021/07/15 01:30:50;;;;;;;11.52;7.15;;;24.60;62.10;;;;;;5056931;28;20029;-72
2021/07/15 01:33:22;;;;;;;11.10;6.85;;;24.60;62.10;;;;;;5056514;28;20021;-73
2021/07/15 01:35:59;;;;;;;15.25;7.57;;;24.50;62.10;;;;;;5056480;28;20025;-73
2021/07/15 01:38:32;;;;;;;9.70;7.32;;;24.50;62.00;;;;;;5056459;28;20403;-72
2021/07/15 01:41:06;;;;;;;9.90;6.85;;;24.50;62.10;;;;;;5056248;28;20033;-72
2021/07/15 01:43:35;;;;;;;9.35;6.30;;;24.50;62.20;;;;;;5056295;28;20025;-73
2021/07/15 01:46:03;;;;;;;10.65;6.60;;;24.50;62.20;;;;;;5056712;28;20032;-72
2021/07/15 01:48:30;;;;;;;9.57;6.57;;;24.40;62.20;;;;;;5056339;28;20024;-72
2021/07/15 01:50:57;;;;;;;10.55;6.68;;;24.40;62.50;;;;;;5056187;28;20037;-72
2021/07/15 01:53:23;;;;;;;10.18;6.30;;;24.40;62.50;;;;;;5056499;28;20422;-72
2021/07/15 01:55:50;;;;;;;13.90;6.35;;;24.40;62.50;;;;;;5072123;28;20036;-72
2021/07/15 01:58:17;;;;;;;10.50;6.60;;;24.30;62.60;;;;;;5056007;28;20036;-73
2021/07/15 02:00:44;;;;;;;9.85;6.38;;;24.30;62.60;;;;;;5056030;28;20024;-73
2021/07/15 02:03:11;;;;;;;8.57;6.35;;;24.30;62.60;;;;;;5056011;28;20036;-72
2021/07/15 02:05:38;;;;;;;12.30;6.38;;;24.30;62.60;;;;;;5055997;28;20056;-73
2021/07/15 02:08:06;;;;;;;10.80;5.88;;;24.30;62.70;;;;;;5056262;28;20090;-72
2021/07/15 02:10:33;;;;;;;11.50;6.47;;;24.30;62.50;;;;;;5056129;28;20021;-73
2021/07/15 02:13:00;;;;;;;16.90;6.68;;;24.30;62.50;;;;;;5055865;28;20119;-72
2021/07/15 02:15:27;;;;;;;14.93;6.43;;;24.30;62.60;;;;;;5055738;28;20036;-72
2021/07/15 02:17:54;;;;;;;14.52;6.60;;;24.30;62.50;;;;;;5055615;28;20061;-72
2021/07/15 02:20:22;;;;;;;11.38;7.13;;;24.20;62.70;;;;;;5056121;28;20368;-72
2021/07/15 02:22:49;;;;;;;11.82;6.72;;;24.20;62.80;;;;;;5055333;28;20090;-72
2021/07/15 02:25:17;;;;;;;9.48;6.15;;;24.20;62.90;;;;;;5055346;28;20356;-75
2021/07/15 02:27:45;;;;;;;11.02;7.20;;;24.20;63.20;;;;;;5055457;28;20029;-72
2021/07/15 02:30:14;;;;;;;12.00;6.78;;;24.20;63.40;;;;;;5055504;28;20028;-73
2021/07/15 02:32:45;;;;;;;11.68;7.50;;;24.20;63.60;;;;;;5055784;28;20021;-72
2021/07/15 02:35:17;;;;;;;15.70;7.90;;;24.10;63.90;;;;;;5055216;28;20025;-72
2021/07/15 02:37:44;;;;;;;12.57;7.00;;;24.10;64.10;;;;;;5055169;28;20029;-73
2021/07/15 02:40:15;;;;;;;15.00;7.47;;;24.10;64.20;;;;;;5055386;28;20118;-73
2021/07/15 02:42:44;;;;;;;9.02;6.88;;;24.10;64.40;;;;;;5055228;28;20033;-73
2021/07/15 02:45:12;;;;;;;15.48;7.53;;;24.10;64.50;;;;;;5055226;28;20384;-72
2021/07/15 02:47:42;;;;;;;12.95;7.60;;;24.10;64.70;;;;;;5055213;28;20049;-73
2021/07/15 02:50:10;;;;;;;14.27;7.32;;;24.00;64.80;;;;;;5055231;28;20021;-72
2021/07/15 02:52:36;;;;;;;12.70;7.53;;;24.10;65.10;;;;;;5055086;28;20049;-73
2021/07/15 02:55:02;;;;;;;13.73;8.18;;;24.10;65.20;;;;;;5055346;28;20025;-72
2021/07/15 02:57:35;;;;;;;16.42;7.63;;;24.00;65.40;;;;;;5054995;28;20033;-73
2021/07/15 03:00:13;;;;;;;10.80;7.63;;;24.00;65.60;;;;;;5054869;28;20371;-73
2021/07/15 03:03:07;;;;;;;11.15;7.95;;;24.00;65.70;;;;;;5055075;28;20120;-72
2021/07/15 03:06:02;;;;;;;11.30;7.13;;;24.00;65.80;;;;;;5070348;28;20119;-73
2021/07/15 03:08:34;;;;;;;16.25;7.70;;;24.00;65.70;;;;;;5052682;28;20112;-73
2021/07/15 03:11:04;;;;;;;11.23;7.68;;;24.00;65.80;;;;;;5054816;28;20033;-73
2021/07/15 03:13:31;;;;;;;10.60;7.95;;;24.00;66.70;;;;;;5054731;28;20025;-73
2021/07/15 03:15:57;;;;;;;11.70;7.72;;;24.10;66.10;;;;;;5054423;28;20024;-73
2021/07/15 03:18:26;;;;;;;12.20;7.68;;;24.10;66.10;;;;;;5054663;28;20021;-73
2021/07/15 03:20:54;;;;;;;11.10;7.57;;;24.10;66.30;;;;;;5053126;28;20457;-73
2021/07/15 03:23:23;;;;;;;12.65;8.60;;;24.10;65.90;;;;;;5055301;28;20374;-73
2021/07/15 03:25:51;;;;;;;15.10;8.45;;;24.20;66.00;;;;;;5054556;28;20064;-73
2021/07/15 03:28:23;;;;;;;12.75;8.20;;;24.20;65.90;;;;;;5054759;28;20021;-73
2021/07/15 03:30:51;;;;;;;14.68;7.40;;;24.20;65.80;;;;;;5054499;28;20037;-73
2021/07/15 03:33:21;;;;;;;15.20;7.60;;;24.20;65.40;;;;;;5054838;28;20075;-73
2021/07/15 03:35:47;;;;;;;12.20;7.50;;;24.30;65.50;;;;;;5053612;28;20035;-73
2021/07/15 03:38:13;;;;;;;11.35;7.00;;;24.30;65.30;;;;;;5054235;28;20028;-72
2021/07/15 03:40:40;;;;;;;13.35;7.60;;;24.30;65.00;;;;;;5054959;28;20032;-72
2021/07/15 03:43:10;;;;;;;14.30;7.57;;;24.40;64.70;;;;;;5054072;28;20033;-72
2021/07/15 03:45:36;;;;;;;13.88;7.20;;;24.40;64.60;;;;;;5054082;28;20064;-72
2021/07/15 03:48:03;;;;;;;10.40;6.72;;;24.50;64.30;;;;;;5054339;28;20028;-73
2021/07/15 03:50:31;;;;;;;9.13;6.18;;;24.60;64.10;;;;;;5053982;28;20033;-72
2021/07/15 03:53:01;;;;;;;17.15;6.63;;;24.60;63.80;;;;;;5054071;28;20045;-72
2021/07/15 03:55:30;;;;;;;11.10;6.88;;;24.70;63.60;;;;;;5054220;28;20025;-73
2021/07/15 03:57:57;;;;;;;10.68;6.75;;;24.70;63.20;;;;;;5053864;28;20128;-73
2021/07/15 04:00:25;;;;;;;9.68;6.95;;;24.80;63.60;;;;;;5053901;28;20032;-73
2021/07/15 04:03:00;;;;;;;15.02;7.75;;;24.80;62.70;;;;;;5053909;28;20035;-73
2021/07/15 04:05:29;;;;;;;14.30;6.38;;;24.90;62.80;;;;;;5053907;28;20057;-73
2021/07/15 04:08:00;;;;;;;14.43;7.50;;;25.00;62.30;;;;;;5053906;28;20074;-73
2021/07/15 04:10:31;;;;;;;12.30;6.30;;;25.00;62.10;;;;;;5054312;28;20021;-73
2021/07/15 04:12:59;;;;;;;16.45;6.60;;;25.20;61.90;;;;;;5053661;28;20026;-71
2021/07/15 04:15:50;;;;;;;12.63;6.65;;;25.20;61.90;;;;;;5053423;28;20029;-72
2021/07/15 04:18:19;;;;;;;13.10;6.05;;;25.30;61.70;;;;;;5053394;28;20025;-72
2021/07/15 04:20:45;;;;;;;12.98;7.05;;;25.40;61.50;;;;;;5053585;28;20025;-72
2021/07/15 04:23:12;;;;;;;12.30;6.05;;;25.40;60.90;;;;;;5053567;28;20033;-72
2021/07/15 04:25:39;;;;;;;9.13;7.28;;;25.50;59.90;;;;;;5053582;28;20051;-72
2021/07/15 04:28:06;;;;;;;9.48;7.38;;;25.60;59.60;;;;;;5053422;28;20426;-72
2021/07/15 04:30:32;;;;;;;12.88;7.88;;;25.60;59.00;;;;;;5053538;28;20131;-73
2021/07/15 04:32:59;;;;;;;13.88;7.30;;;25.80;58.70;;;;;;5053533;28;20029;-74
2021/07/15 04:35:26;;;;;;;11.95;8.23;;;25.80;58.30;;;;;;5053457;28;20025;-74
2021/07/15 04:37:53;;;;;;;17.83;7.35;;;25.90;58.10;;;;;;5053403;28;20364;-73
2021/07/15 04:40:22;;;;;;;9.05;7.43;;;26.00;57.80;;;;;;5053388;28;20025;-74
2021/07/15 04:42:51;;;;;;;26.10;6.70;;;26.10;57.50;;;;;;5053180;28;20045;-73
2021/07/15 04:45:17;;;;;;;10.85;6.03;;;26.20;57.40;;;;;;5068963;28;20486;-73
2021/07/15 04:47:46;;;;;;;8.60;5.90;;;26.30;56.80;;;;;;5072696;28;20025;-72
2021/07/15 04:50:16;;;;;;;7.72;5.28;;;26.40;56.20;;;;;;5057539;28;20025;-72
2021/07/15 04:52:44;;;;;;;7.43;4.88;;;26.40;55.50;;;;;;5057098;28;20053;-72
2021/07/15 04:55:10;;;;;;;6.38;4.82;;;26.50;55.10;;;;;;5057881;28;20044;-73
2021/07/15 04:57:37;;;;;;;10.27;5.25;;;26.60;55.30;;;;;;5057401;28;20099;-73
2021/07/15 05:00:15;;;;;;;11.00;5.18;;;26.70;55.30;;;;;;5057058;28;20103;-73
2021/07/15 05:02:41;;;;;;;7.97;5.13;;;26.70;55.20;;;;;;5056831;28;20025;-73
2021/07/15 05:05:09;;;;;;;13.05;5.22;;;26.90;55.30;;;;;;5057346;28;20083;-72
2021/07/15 05:07:36;;;;;;;10.85;5.32;;;26.90;54.80;;;;;;5057195;28;20429;-74
2021/07/15 05:10:04;;;;;;;11.20;4.38;;;27.00;54.70;;;;;;5057051;28;20029;-72
2021/07/15 05:12:30;;;;;;;13.10;4.53;;;27.10;54.10;;;;;;5057168;28;20032;-72
2021/07/15 05:14:55;;;;;;;8.80;4.70;;;27.20;53.50;;;;;;5057066;28;20052;-74
2021/07/15 05:17:21;;;;;;;10.90;4.47;;;27.20;52.90;;;;;;5057091;28;20098;-72
2021/07/15 05:19:47;;;;;;;7.38;4.40;;;27.30;52.70;;;;;;5056850;28;20029;-73
2021/07/15 05:22:12;;;;;;;21.05;4.78;;;27.40;52.80;;;;;;5056845;28;20041;-72
2021/07/15 05:24:38;;;;;;;7.47;4.55;;;27.40;52.90;;;;;;5057025;28;20021;-72
2021/07/15 05:27:04;;;;;;;7.07;4.47;;;27.50;53.00;;;;;;5056806;28;20078;-73
2021/07/15 05:29:30;;;;;;;9.32;4.30;;;27.60;53.10;;;;;;5056790;28;20021;-74
2021/07/15 05:31:56;;;;;;;6.80;4.40;;;27.70;52.60;;;;;;5057279;28;20044;-73
2021/07/15 05:34:22;;;;;;;7.63;4.32;;;27.80;52.30;;;;;;5056587;28;20067;-76
2021/07/15 05:36:48;;;;;;;6.90;4.55;;;27.90;51.90;;;;;;5056645;28;20075;-74
2021/07/15 05:39:14;;;;;;;11.75;4.47;;;27.90;51.50;;;;;;5056494;28;20025;-73
2021/07/15 05:41:40;;;;;;;37.13;15.85;;;28.00;51.10;;;;;;5056595;28;20052;-73
2021/07/15 05:44:06;;;;;;;24.23;11.27;;;28.10;51.10;;;;;;5056271;28;20036;-73
2021/07/15 05:46:32;;;;;;;16.98;8.50;;;28.20;51.10;;;;;;5071602;28;20044;-76
2021/07/15 05:48:57;;;;;;;55.45;28.63;;;28.30;51.50;;;;;;5056594;28;20065;-73
2021/07/15 05:51:23;;;;;;;31.60;15.38;;;28.40;51.10;;;;;;5056245;28;20083;-75
2021/07/15 05:53:49;;;;;;;31.48;16.00;;;28.50;51.20;;;;;;5056294;28;20103;-73
2021/07/15 05:56:14;;;;;;;26.40;12.90;;;28.60;51.40;;;;;;5071245;28;20120;-72
2021/07/15 05:58:40;;;;;;;14.38;6.40;;;28.70;51.20;;;;;;5055952;28;20086;-74
2021/07/15 06:01:07;;;;;;;25.25;11.10;;;28.90;51.20;;;;;;5056297;28;20399;-73
2021/07/15 06:03:33;;;;;;;11.80;6.50;;;29.00;51.30;;;;;;5056070;28;20029;-77
2021/07/15 06:05:58;;;;;;;12.75;4.93;;;29.10;51.20;;;;;;5056151;28;20091;-73
2021/07/15 06:08:24;;;;;;;12.02;5.63;;;29.20;51.10;;;;;;5056449;28;20044;-72
2021/07/15 06:10:50;;;;;;;10.57;4.90;;;29.30;51.00;;;;;;5056319;28;20485;-73
2021/07/15 06:13:15;;;;;;;12.48;6.07;;;29.40;50.80;;;;;;5055702;28;20029;-73
2021/07/15 06:15:41;;;;;;;13.57;4.85;;;29.50;50.90;;;;;;5056344;28;20037;-73
2021/07/15 06:18:08;;;;;;;11.85;5.30;;;29.60;50.90;;;;;;5055579;28;20387;-73
2021/07/15 06:20:34;;;;;;;9.32;4.40;;;29.60;50.70;;;;;;5055426;28;20029;-73
2021/07/15 06:23:00;;;;;;;8.88;5.10;;;29.80;49.80;;;;;;5055976;28;20104;-73
2021/07/15 06:25:26;;;;;;;9.20;4.55;;;29.80;49.50;;;;;;5055500;28;20086;-73
2021/07/15 06:27:53;;;;;;;10.50;4.57;;;29.80;49.50;;;;;;5071183;28;20021;-72
2021/07/15 06:30:19;;;;;;;10.00;4.55;;;29.90;48.80;;;;;;5055581;28;20391;-73
2021/07/15 06:32:45;;;;;;;8.57;4.97;;;29.90;48.80;;;;;;5055693;28;20029;-73
2021/07/15 06:35:12;;;;;;;7.47;4.57;;;30.00;48.70;;;;;;5055278;28;20027;-73
2021/07/15 06:37:42;;;;;;;11.07;5.32;;;30.10;48.20;;;;;;5055577;28;20360;-74
2021/07/15 06:40:09;;;;;;;11.75;4.32;;;30.20;48.20;;;;;;5055595;28;20032;-73
2021/07/15 06:42:35;;;;;;;11.18;4.38;;;30.30;47.50;;;;;;5055217;28;20036;-74
2021/07/15 06:45:03;;;;;;;14.30;4.82;;;30.30;47.10;;;;;;5055253;28;20025;-74
2021/07/15 06:47:29;;;;;;;6.18;4.00;;;30.40;46.70;;;;;;5055350;28;20029;-74
2021/07/15 06:49:54;;;;;;;8.15;4.25;;;30.40;46.30;;;;;;5054940;28;20028;-73
2021/07/15 06:52:22;;;;;;;11.30;4.03;;;30.50;46.10;;;;;;5054853;28;20056;-73
2021/07/15 06:54:48;;;;;;;6.90;3.55;;;30.60;46.00;;;;;;5055904;28;20025;-73
2021/07/15 06:57:14;;;;;;;8.98;4.38;;;30.70;45.40;;;;;;5055437;28;20024;-72
2021/07/15 06:59:40;;;;;;;5.93;4.15;;;30.80;45.30;;;;;;5055041;28;20486;-73
2021/07/15 07:02:07;;;;;;;7.65;4.22;;;30.80;45.50;;;;;;5053723;28;20028;-74
2021/07/15 07:04:34;;;;;;;10.60;5.20;;;30.90;45.90;;;;;;5053649;28;20033;-75
2021/07/15 07:07:00;;;;;;;8.80;4.43;;;31.00;45.90;;;;;;5055150;28;20033;-73
2021/07/15 07:09:25;;;;;;;9.50;4.40;;;31.10;45.20;;;;;;5053712;28;20360;-75
2021/07/15 07:11:51;;;;;;;7.88;4.15;;;31.10;45.40;;;;;;5054594;28;20102;-72
2021/07/15 07:14:17;;;;;;;8.18;3.92;;;31.20;45.50;;;;;;5069995;28;20029;-72
2021/07/15 07:16:43;;;;;;;6.45;4.10;;;31.30;45.30;;;;;;5054738;28;20035;-73
2021/07/15 07:19:08;;;;;;;6.25;3.20;;;31.40;44.50;;;;;;5054754;28;20419;-73
2021/07/15 07:21:34;;;;;;;11.50;4.18;;;31.50;43.10;;;;;;5054890;28;20029;-73
2021/07/15 07:24:00;;;;;;;6.22;3.35;;;31.60;42.70;;;;;;5055439;28;20048;-72
2021/07/15 07:26:26;;;;;;;7.75;3.58;;;31.70;42.80;;;;;;5054446;28;20025;-73
2021/07/15 07:28:52;;;;;;;6.40;3.55;;;31.70;43.00;;;;;;5054456;28;20119;-72
2021/07/15 07:31:17;;;;;;;8.60;3.65;;;31.90;42.90;;;;;;5054442;28;20115;-74
2021/07/15 07:33:43;;;;;;;6.63;3.42;;;31.90;43.10;;;;;;5054501;28;20022;-72
2021/07/15 07:36:09;;;;;;;11.70;4.68;;;32.00;42.70;;;;;;5054092;28;20132;-73
2021/07/15 07:38:35;;;;;;;16.10;4.18;;;32.10;42.70;;;;;;5054436;28;20057;-74
2021/07/15 07:41:01;;;;;;;11.02;3.85;;;32.10;42.40;;;;;;5069620;28;20035;-73
2021/07/15 07:43:27;;;;;;;19.98;5.20;;;32.20;42.00;;;;;;5053582;28;20438;-72
2021/07/15 07:45:52;;;;;;;11.32;4.50;;;32.30;41.90;;;;;;5053858;28;20348;-72
2021/07/15 07:48:18;;;;;;;11.35;4.15;;;32.40;41.90;;;;;;5054115;28;20079;-72
2021/07/15 07:50:44;;;;;;;15.35;4.70;;;32.50;41.70;;;;;;5054700;28;20025;-73
2021/07/15 07:53:10;;;;;;;28.48;7.47;;;32.50;41.30;;;;;;5054525;28;20476;-73
2021/07/15 07:55:35;;;;;;;36.75;8.82;;;32.60;41.10;;;;;;5053760;28;20029;-73
2021/07/15 07:58:01;;;;;;;26.23;6.72;;;32.60;41.10;;;;;;5053862;28;20490;-74
2021/07/15 08:00:28;;;;;;;34.47;10.48;;;32.70;40.80;;;;;;5054030;28;20037;-73
2021/07/15 08:02:54;;;;;;;31.40;13.55;;;32.80;42.30;;;;;;5053685;28;20037;-73
2021/07/15 08:05:23;;;;;;;8.63;4.60;;;33.00;43.90;;;;;;5052527;28;20090;-74
2021/07/15 08:07:50;;;;;;;23.35;5.40;;;33.00;41.60;;;;;;5053926;28;20107;-76
2021/07/15 08:10:16;;;;;;;45.97;23.55;;;33.20;40.70;;;;;;5053793;28;20589;-73
2021/07/15 08:12:43;;;;;;;50.22;24.75;;;33.30;43.70;;;;;;5053439;28;20070;-74
2021/07/15 08:15:10;;;;;;;45.78;23.70;;;33.40;45.80;;;;;;5053871;28;20028;-73
2021/07/15 08:17:36;;;;;;;37.50;21.25;;;33.50;47.10;;;;;;5053535;28;20032;-73
2021/07/15 08:20:03;;;;;;;44.70;19.95;;;33.60;47.80;;;;;;5053864;28;20039;-73
2021/07/15 08:22:29;;;;;;;26.40;13.95;;;33.80;48.40;;;;;;5053190;28;20036;-73
2021/07/15 08:24:55;;;;;;;27.77;14.57;;;33.90;47.10;;;;;;5053662;28;20479;-73
2021/07/15 08:27:20;;;;;;;18.95;12.50;;;34.00;46.80;;;;;;5054181;28;20021;-74
2021/07/15 08:29:46;;;;;;;20.30;11.35;;;34.10;46.90;;;;;;5053870;28;20025;-73
2021/07/15 08:32:12;;;;;;;16.90;8.38;;;34.20;46.70;;;;;;5053414;28;20112;-74
2021/07/15 08:34:37;;;;;;;21.73;9.50;;;34.30;45.90;;;;;;5053840;28;20057;-74
2021/07/15 08:37:03;;;;;;;15.55;8.80;;;34.50;45.90;;;;;;5053079;28;20029;-74
2021/07/15 08:39:30;;;;;;;24.77;10.07;;;34.60;45.90;;;;;;5053525;28;20033;-74
2021/07/15 08:41:58;;;;;;;20.05;10.02;;;34.80;46.60;;;;;;5053179;28;20524;-75
2021/07/15 08:44:24;;;;;;;11.93;7.35;;;34.90;46.80;;;;;;5053416;28;20039;-74
2021/07/15 08:46:50;;;;;;;12.88;5.43;;;35.00;46.60;;;;;;5053292;28;20096;-73
2021/07/15 08:49:17;;;;;;;12.02;5.93;;;35.20;44.90;;;;;;5053279;28;20042;-73
2021/07/15 08:51:45;;;;;;;10.88;4.30;;;35.40;44.30;;;;;;5053990;28;20455;-73
2021/07/15 08:54:15;;;;;;;13.60;4.40;;;35.60;41.40;;;;;;5052143;28;20095;-73
2021/07/15 08:56:44;;;;;;;10.73;4.57;;;35.70;41.40;;;;;;5052764;28;20053;-75
2021/07/15 08:59:13;;;;;;;16.02;5.30;;;35.80;41.80;;;;;;5053722;28;20029;-72
2021/07/15 09:01:55;;;;;;;9.68;4.43;;;36.10;42.00;;;;;;5053768;28;20371;-73
2021/07/15 09:04:23;;;;;;;17.38;5.38;;;36.30;42.20;;;;;;5053330;28;20025;-73
2021/07/15 09:06:49;;;;;;;8.93;3.92;;;36.50;41.80;;;;;;5053545;28;20037;-73
2021/07/15 09:09:15;;;;;;;8.55;4.10;;;36.70;40.80;;;;;;5053298;28;20455;-73
2021/07/15 09:11:42;;;;;;;10.88;4.20;;;36.90;40.40;;;;;;5052680;28;20037;-73
2021/07/15 09:14:22;;;;;;;14.27;4.47;;;37.00;40.30;;;;;;5053141;28;20183;-73
2021/07/15 09:16:49;;;;;;;11.80;4.57;;;37.20;39.00;;;;;;5052958;28;20305;-73
2021/07/15 09:19:17;;;;;;;9.45;4.20;;;37.30;38.40;;;;;;5052789;28;20455;-74
2021/07/15 09:21:44;;;;;;;13.15;4.75;;;37.40;38.70;;;;;;5052197;28;20471;-74
2021/07/15 09:24:37;;;;;;;13.98;4.65;;;37.60;38.90;;;;;;5053282;28;20025;-73
2021/07/15 09:27:15;;;;;;;8.02;4.72;;;38.00;38.90;;;;;;5052104;28;20044;-76
2021/07/15 09:29:42;;;;;;;21.85;5.00;;;38.20;39.30;;;;;;5053263;28;20374;-73
2021/07/15 09:32:09;;;;;;;7.82;4.00;;;38.40;39.30;;;;;;5052625;28;20459;-74
2021/07/15 09:34:36;;;;;;;6.13;3.95;;;38.60;39.00;;;;;;5056288;28;20360;-75
2021/07/15 09:37:16;;;;;;;7.55;3.88;;;38.90;38.70;;;;;;5055149;28;20029;-75
2021/07/15 09:39:45;;;;;;;8.57;3.60;;;39.10;38.40;;;;;;5056689;28;20078;-74
2021/07/15 09:42:18;;;;;;;31.88;5.05;;;39.30;38.10;;;;;;5056402;28;20032;-74
2021/07/15 09:44:46;;;;;;;19.65;4.38;;;39.50;38.00;;;;;;5056273;28;20028;-73
2021/07/15 09:47:32;;;;;;;7.30;3.78;;;39.70;38.00;;;;;;5056249;28;20459;-74
2021/07/15 09:49:58;;;;;;;18.50;4.65;;;40.00;37.80;;;;;;5056569;28;20328;-74
2021/07/15 09:52:24;;;;;;;11.80;3.90;;;40.20;37.70;;;;;;5056624;28;20183;-74
2021/07/15 09:54:50;;;;;;;6.05;3.40;;;40.30;37.30;;;;;;5056580;28;20102;-74
2021/07/15 09:57:43;;;;;;;10.68;3.65;;;40.40;37.50;;;;;;5056366;28;20497;-75
2021/07/15 10:00:10;;;;;;;6.18;3.28;;;40.60;37.30;;;;;;5055003;28;20048;-74
2021/07/15 10:02:35;;;;;;;5.35;3.40;;;40.70;37.00;;;;;;5056288;28;20116;-74
2021/07/15 10:05:02;;;;;;;8.30;3.67;;;40.90;36.40;;;;;;5055879;28;20110;-74
2021/07/15 10:07:28;;;;;;;13.88;3.95;;;41.10;36.00;;;;;;5055787;28;20029;-74
2021/07/15 10:10:15;;;;;;;5.78;3.28;;;41.30;35.90;;;;;;5055780;28;20033;-74
2021/07/15 10:12:40;;;;;;;11.68;3.78;;;41.50;37.00;;;;;;5055857;28;20029;-73
2021/07/15 10:15:11;;;;;;;9.50;3.53;;;41.60;36.40;;;;;;5055699;28;20029;-73
2021/07/15 10:17:46;;;;;;;9.70;3.40;;;41.70;36.10;;;;;;5056230;28;20029;-73
2021/07/15 10:20:18;;;;;;;4.57;3.60;;;41.80;36.50;;;;;;5056426;28;20036;-73
2021/07/15 10:22:52;;;;;;;6.78;3.10;;;41.80;36.70;;;;;;5055549;28;20048;-73
2021/07/15 10:25:18;;;;;;;5.63;2.88;;;42.00;36.50;;;;;;5055874;28;20052;-75
2021/07/15 10:27:45;;;;;;;6.13;3.50;;;42.10;36.30;;;;;;5055620;28;20036;-74
2021/07/15 10:30:12;;;;;;;5.95;3.20;;;42.20;36.40;;;;;;5055867;28;20444;-73
2021/07/15 10:32:39;;;;;;;4.47;3.00;;;42.40;36.20;;;;;;5056237;28;20029;-74
2021/07/15 10:35:12;;;;;;;5.43;3.40;;;42.50;36.10;;;;;;5055848;28;20029;-73
2021/07/15 10:37:43;;;;;;;6.20;3.20;;;42.60;35.80;;;;;;5055535;28;20448;-74
2021/07/15 10:40:12;;;;;;;8.18;3.55;;;42.70;35.60;;;;;;5055409;28;20043;-74
2021/07/15 10:42:38;;;;;;;7.20;3.97;;;42.90;35.60;;;;;;5055847;28;20033;-74
2021/07/15 10:45:06;;;;;;;8.93;3.10;;;43.10;35.40;;;;;;5055636;28;20482;-73
2021/07/15 10:47:33;;;;;;;7.85;3.55;;;43.20;35.10;;;;;;5055395;28;20426;-74
2021/07/15 10:50:00;;;;;;;6.35;3.65;;;43.40;34.70;;;;;;5055175;28;20037;-74
2021/07/15 10:52:27;;;;;;;9.32;3.33;;;43.60;35.00;;;;;;5055038;28;20060;-74
2021/07/15 10:54:54;;;;;;;6.32;3.17;;;43.60;34.70;;;;;;5055499;28;20017;-74
2021/07/15 10:57:22;;;;;;;6.28;2.90;;;43.80;34.60;;;;;;5055411;28;20033;-73
2021/07/15 10:59:48;;;;;;;6.05;3.22;;;43.90;34.30;;;;;;5071214;28;20399;-74
2021/07/15 11:02:23;;;;;;;4.80;3.22;;;44.00;34.40;;;;;;5055068;28;20040;-75
2021/07/15 11:04:50;;;;;;;5.82;3.05;;;44.10;33.80;;;;;;5054923;28;20028;-73
2021/07/15 11:07:28;;;;;;;5.72;3.47;;;44.20;33.50;;;;;;5055025;28;20025;-73
2021/07/15 11:10:16;;;;;;;7.30;3.22;;;44.20;33.90;;;;;;5070531;28;20102;-75
2021/07/15 11:12:53;;;;;;;3.97;3.08;;;44.40;34.10;;;;;;5055585;28;20032;-75
2021/07/15 11:15:19;;;;;;;7.28;3.33;;;44.50;34.40;;;;;;5054806;28;20029;-74
2021/07/15 11:17:47;;;;;;;6.15;3.13;;;44.70;34.20;;;;;;5054500;28;20027;-74
2021/07/15 11:20:26;;;;;;;4.63;3.08;;;44.90;33.30;;;;;;5070589;28;20042;-73
2021/07/15 11:23:07;;;;;;;7.57;3.25;;;45.10;33.40;;;;;;5070064;28;20364;-74
2021/07/15 11:25:44;;;;;;;8.63;3.25;;;45.20;33.50;;;;;;5070475;28;20040;-74
2021/07/15 11:28:09;;;;;;;6.85;3.65;;;45.20;33.10;;;;;;5055031;28;20427;-74
2021/07/15 11:30:35;;;;;;;5.13;3.00;;;45.40;33.70;;;;;;5054553;28;20114;-73
2021/07/15 11:33:19;;;;;;;4.43;3.05;;;45.50;33.60;;;;;;5054251;28;20094;-74
2021/07/15 11:35:51;;;;;;;6.57;3.90;;;45.50;33.20;;;;;;5054472;28;20033;-74
2021/07/15 11:38:33;;;;;;;5.32;3.45;;;45.60;33.50;;;;;;5054363;28;20025;-73
2021/07/15 11:41:05;;;;;;;12.60;3.83;;;45.70;33.70;;;;;;5054741;28;20041;-73
2021/07/15 11:43:47;;;;;;;10.15;3.15;;;45.80;33.80;;;;;;5052702;28;20542;-75
2021/07/15 11:46:28;;;;;;;3.33;2.97;;;46.10;33.80;;;;;;5054262;28;20078;-74
2021/07/15 11:49:07;;;;;;;21.85;4.13;;;46.20;33.50;;;;;;5054365;28;20383;-74
2021/07/15 11:51:56;;;;;;;5.50;3.33;;;46.40;32.90;;;;;;5069612;28;20119;-75
2021/07/15 11:54:30;;;;;;;22.23;4.35;;;46.60;32.60;;;;;;5054405;28;20056;-74
2021/07/15 11:56:57;;;;;;;12.77;3.58;;;46.80;32.40;;;;;;5053423;28;20475;-73
2021/07/15 11:59:38;;;;;;;6.65;3.05;;;47.00;32.20;;;;;;5054025;28;20036;-73
2021/07/15 12:02:21;;;;;;;9.25;3.72;;;47.20;32.30;;;;;;5053587;28;20546;-74
2021/07/15 12:05:12;;;;;;;6.38;3.03;;;47.30;32.10;;;;;;5054133;28;20031;-73
2021/07/15 12:07:39;;;;;;;5.05;3.33;;;47.50;32.10;;;;;;5053394;28;20037;-74
2021/07/15 12:10:08;;;;;;;7.88;3.30;;;47.60;32.50;;;;;;5053915;28;20509;-75
2021/07/15 12:12:38;;;;;;;7.18;3.28;;;47.60;31.60;;;;;;5054141;28;20111;-75
2021/07/15 12:15:04;;;;;;;14.82;4.13;;;47.80;31.10;;;;;;5053194;28;20029;-75
2021/07/15 12:17:31;;;;;;;5.40;3.20;;;48.00;30.90;;;;;;5053568;28;20051;-75
2021/07/15 12:19:59;;;;;;;5.32;3.00;;;48.10;31.00;;;;;;5053469;28;20452;-74
2021/07/15 12:22:26;;;;;;;6.55;3.20;;;48.00;30.70;;;;;;5053981;28;20040;-74
2021/07/15 12:25:16;;;;;;;10.55;4.05;;;48.20;30.90;;;;;;5053656;28;20052;-75
2021/07/15 12:27:44;;;;;;;3.22;2.92;;;48.30;30.40;;;;;;5053251;28;20036;-75
2021/07/15 12:30:10;;;;;;;6.47;3.50;;;48.30;30.20;;;;;;5053860;28;20053;-74
2021/07/15 12:32:37;;;;;;;5.95;3.72;;;48.30;30.40;;;;;;5053321;28;20040;-74
2021/07/15 12:35:32;;;;;;;5.25;3.65;;;48.30;30.60;;;;;;5068665;28;20029;-75
2021/07/15 12:37:58;;;;;;;4.28;3.03;;;48.40;31.30;;;;;;5052393;28;20368;-73
2021/07/15 12:40:26;;;;;;;12.95;3.88;;;48.60;30.60;;;;;;5053499;28;20426;-74
2021/07/15 12:42:52;;;;;;;8.23;3.30;;;48.60;30.60;;;;;;5053433;28;20068;-74
2021/07/15 12:45:20;;;;;;;5.60;3.10;;;48.70;30.40;;;;;;5053591;28;20057;-74
2021/07/15 12:47:58;;;;;;;6.93;3.20;;;48.80;30.20;;;;;;5053273;28;20120;-78
2021/07/15 12:50:24;;;;;;;8.23;3.88;;;48.90;30.70;;;;;;5053270;28;20071;-73